.
WxDataArchive / Data Records for 2014-07-27
2014-07-26 July 2014 2014-07-28

Data Records for Sunday, 27 July 2014

Time	Temp	Chill	HIndex	Humid	Dewpt	 Wind 	HiWind	WindDir	Rain 	Barom
-----	----	-----	------	-----	-----	------	------	-------	-----	-----
00:00	75.1	75.1	74.6	88	71.3	0	0	---	0.00	29.771 
00:05	74.9	74.9	74.9	88	71.1	0	0	---	0.00	29.771 
00:10	74.7	74.7	74.7	88	70.9	0	0	---	0.00	29.771 
00:15	74.6	74.6	74.6	88	70.8	0	0	---	0.00	29.772 
00:20	74.4	74.4	74.4	89	70.9	0	0	---	0.00	29.772 
00:25	74.2	74.2	74.2	89	70.7	0	0	---	0.00	29.772 
00:30	74.0	74.0	74.0	89	70.5	0	0	---	0.00	29.773 
00:35	74.0	74.0	74.0	90	70.9	0	0	---	0.00	29.773 
00:40	73.9	73.9	73.9	90	70.8	0	0	---	0.00	29.773 
00:45	73.7	73.7	73.7	90	70.6	0	0	---	0.00	29.768 
00:50	73.5	73.5	73.5	90	70.4	0	0	---	0.00	29.768 
00:55	73.3	73.3	73.3	90	70.2	0	0	---	0.00	29.768 
01:00	73.2	73.2	73.2	91	70.4	0	1	292	0.00	29.785 
01:05	73.2	73.2	73.2	91	70.4	0	1	292	0.00	29.785 
01:10	73.3	73.3	73.3	92	70.8	0	0	---	0.00	29.785 
01:15	73.3	73.3	73.3	92	70.8	0	0	---	0.00	29.787 
01:20	73.3	73.3	73.3	92	70.8	0	0	---	0.00	29.787 
01:25	73.5	73.5	73.5	92	71.0	0	0	---	0.00	29.787 
01:30	73.7	73.7	73.7	92	71.2	0	0	---	0.00	29.790 
01:35	73.7	73.7	73.7	92	71.2	0	0	---	0.00	29.790 
01:40	73.9	73.9	73.9	92	71.4	0	0	---	0.00	29.790 
01:45	73.9	73.9	73.9	93	71.7	0	1	292	0.00	29.784 
01:50	73.9	73.9	73.9	93	71.7	0	0	---	0.00	29.784 
01:55	73.9	73.9	73.9	93	71.7	0	0	---	0.00	29.784 
02:00	74.0	74.0	74.0	93	71.8	0	0	---	0.00	29.784 
02:05	74.0	74.0	74.0	93	71.8	0	0	---	0.00	29.784 
02:10	74.2	74.2	74.2	93	72.0	0	0	---	0.00	29.784 
02:15	74.2	74.2	74.2	93	72.0	0	1	292	0.00	29.784 
02:20	74.2	74.2	74.2	93	72.0	0	1	292	0.00	29.784 
02:25	74.2	74.2	74.2	93	72.0	0	0	---	0.00	29.784 
02:30	74.2	74.2	74.2	93	72.0	0	1	292	0.00	29.783 
02:35	74.2	74.2	74.2	93	72.0	0	1	292	0.00	29.783 
02:40	74.2	74.2	74.2	93	72.0	0	1	292	0.00	29.783 
02:45	74.2	74.2	74.2	93	72.0	0	1	292	0.00	29.775 
02:50	74.2	74.2	74.2	93	72.0	0	2	292	0.00	29.775 
02:55	74.2	74.2	74.2	93	72.0	0	1	292	0.00	29.775 
03:00	74.2	74.2	74.2	93	72.0	0	1	292	0.00	29.768 
03:05	74.2	74.2	74.2	93	72.0	1	3	292	0.00	29.768 
03:10	74.0	74.0	74.0	93	71.8	0	2	292	0.00	29.768 
03:15	73.9	73.9	73.9	93	71.7	0	3	292	0.00	29.768 
03:20	73.7	73.7	73.7	93	71.5	0	2	292	0.00	29.768 
03:25	73.5	73.5	73.5	93	71.3	0	1	292	0.00	29.768 
03:30	73.5	73.5	73.5	93	71.3	0	1	292	0.00	29.769 
03:35	73.3	73.3	73.3	93	71.1	0	1	292	0.00	29.769 
03:40	73.3	73.3	73.3	93	71.1	0	0	---	0.00	29.769 
03:45	73.2	73.2	73.2	93	71.0	0	0	---	0.00	29.773 
03:50	73.2	73.2	73.2	93	71.0	0	0	---	0.00	29.773 
03:55	73.2	73.2	73.2	93	71.0	0	0	---	0.00	29.773 
04:00	73.2	73.2	73.2	93	71.0	0	0	---	0.00	29.772 
04:05	73.3	73.3	73.3	93	71.1	0	0	---	0.00	29.772 
04:10	73.5	73.5	73.5	93	71.3	0	0	---	0.00	29.772 
04:15	73.5	73.5	73.5	93	71.3	0	0	---	0.00	29.766 
04:20	73.5	73.5	73.5	93	71.3	0	1	292	0.00	29.766 
04:25	73.5	73.5	73.5	93	71.3	0	1	292	0.00	29.766 
04:30	73.3	73.3	73.3	93	71.1	0	1	292	0.00	29.757 
04:35	73.3	73.3	73.3	93	71.1	0	0	---	0.00	29.757 
04:40	73.2	73.2	73.2	93	71.0	0	1	292	0.00	29.757 
04:45	73.2	73.2	73.2	93	71.0	0	0	---	0.00	29.756 
04:50	73.2	73.2	73.2	93	71.0	0	0	---	0.00	29.756 
04:55	73.2	73.2	73.2	93	71.0	0	1	292	0.00	29.756 
05:00	73.0	73.0	73.0	93	70.8	0	1	292	0.00	29.745 
05:05	73.0	73.0	73.0	93	70.8	0	1	292	0.00	29.745 
05:10	72.8	72.8	72.8	93	70.7	0	0	---	0.00	29.745 
05:15	72.8	72.8	72.8	93	70.7	0	0	---	0.00	29.739 
05:20	72.8	72.8	72.8	93	70.7	0	0	---	0.00	29.739 
05:25	72.7	72.7	72.7	93	70.6	0	0	---	0.00	29.739 
05:30	72.7	72.7	72.7	93	70.6	0	0	---	0.00	29.730 
05:35	72.5	72.5	72.5	93	70.4	0	0	---	0.00	29.730 
05:40	72.5	72.5	72.5	93	70.4	0	0	---	0.00	29.730 
05:45	72.3	72.3	72.3	93	70.2	0	0	---	0.00	29.732 
05:50	72.1	72.1	72.1	93	70.0	0	0	---	0.00	29.732 
05:55	72.0	72.0	72.0	93	69.9	0	1	292	0.00	29.732 
06:00	71.8	71.8	71.8	93	69.7	0	0	---	0.00	29.729 
06:05	71.8	71.8	71.8	93	69.7	0	1	292	0.00	29.729 
06:10	71.8	71.8	71.8	93	69.7	0	0	---	0.00	29.729 
06:15	71.6	71.6	71.6	93	69.5	0	1	292	0.00	29.735 
06:20	71.6	71.6	71.6	93	69.5	0	0	---	0.00	29.735 
06:25	71.6	71.6	71.6	93	69.5	0	0	---	0.00	29.735 
06:30	71.6	71.6	71.6	93	69.5	0	0	---	0.00	29.737 
06:35	71.5	71.5	71.5	93	69.4	0	0	---	0.00	29.737 
06:40	71.3	71.3	71.3	92	68.8	0	0	---	0.00	29.737 
06:45	71.3	71.3	71.3	92	68.8	0	0	---	0.00	29.737 
06:50	71.3	71.3	71.3	92	68.8	0	0	---	0.00	29.737 
06:55	71.3	71.3	71.3	92	68.8	0	0	---	0.00	29.737 
07:00	71.1	71.1	71.1	92	68.7	0	0	---	0.00	29.741 
07:05	71.1	71.1	71.1	91	68.3	0	0	---	0.00	29.741 
07:10	71.1	71.1	71.1	91	68.3	0	0	---	0.00	29.741 
07:15	71.1	71.1	71.1	90	68.0	0	0	---	0.00	29.745 
07:20	71.1	71.1	71.1	89	67.7	0	1	292	0.00	29.745 
07:25	71.1	71.1	71.1	89	67.7	0	0	---	0.00	29.745 
07:30	71.1	71.1	71.1	88	67.4	0	0	---	0.00	29.745 
07:35	71.3	71.3	71.3	88	67.6	0	0	---	0.00	29.745 
07:40	71.3	71.3	71.3	88	67.6	0	0	---	0.00	29.745 
07:45	71.3	71.3	71.3	88	67.6	0	1	292	0.00	29.750 
07:50	71.3	71.3	71.3	88	67.6	0	1	292	0.00	29.750 
07:55	71.3	71.3	71.3	88	67.6	0	1	292	0.00	29.750 
08:00	71.5	71.5	71.5	88	67.7	0	0	---	0.00	29.744 
08:05	71.6	71.6	71.6	87	67.5	0	0	---	0.00	29.744 
08:10	71.6	71.6	71.6	87	67.5	0	0	---	0.00	29.744 
08:15	71.8	71.8	71.8	87	67.7	0	0	---	0.00	29.741 
08:20	72.0	72.0	72.0	86	67.6	0	1	292	0.00	29.741 
08:25	72.1	72.1	72.1	86	67.7	0	1	292	0.00	29.741 
08:30	72.7	72.7	72.7	85	67.9	0	0	---	0.00	29.741 
08:35	73.0	73.0	73.0	84	67.9	0	1	292	0.00	29.741 
08:40	73.3	73.3	73.3	84	68.2	0	1	292	0.00	29.741 
08:45	73.7	73.7	73.7	83	68.2	0	0	---	0.00	29.741 
08:50	73.9	73.9	73.9	83	68.4	0	1	292	0.00	29.741 
08:55	74.2	74.2	74.2	83	68.7	0	1	292	0.00	29.741 
09:00	74.4	74.4	74.4	82	68.5	0	1	292	0.00	29.737 
09:05	74.6	74.6	74.6	82	68.7	0	2	292	0.00	29.737 
09:10	74.9	74.9	74.9	82	69.0	0	1	292	0.00	29.737 
09:15	75.6	75.6	76.3	81	69.3	0	1	292	0.00	29.727 
09:20	76.0	76.0	76.9	81	69.7	0	0	---	0.00	29.727 
09:25	76.1	76.1	77.1	81	69.8	0	0	---	0.00	29.727 
09:30	76.3	76.3	77.4	81	70.0	0	0	---	0.00	29.723 
09:35	76.3	76.3	77.4	81	70.0	0	0	---	0.00	29.723 
09:40	76.3	76.3	77.3	82	70.4	0	0	---	0.00	29.723 
09:45	76.1	76.1	77.1	81	69.8	0	0	---	0.00	29.725 
09:50	76.1	76.1	77.1	81	69.8	0	0	---	0.00	29.725 
09:55	76.5	76.5	77.7	81	70.2	0	0	---	0.00	29.725 
10:00	76.8	76.8	78.2	80	70.1	0	0	---	0.00	29.724 
10:05	77.2	77.2	78.9	78	69.8	0	0	---	0.00	29.724 
10:10	77.6	77.6	79.6	78	70.2	0	0	---	0.00	29.724 
10:15	78.1	78.1	80.4	78	70.7	0	0	---	0.00	29.723 
10:20	78.3	78.3	80.7	76	70.1	0	0	---	0.00	29.723 
10:25	78.5	78.5	81.0	76	70.3	0	0	---	0.00	29.723 
10:30	78.6	78.6	81.1	75	70.0	0	0	---	0.00	29.707 
10:35	78.6	78.6	81.1	75	70.0	0	0	---	0.00	29.707 
10:40	78.8	78.8	81.5	76	70.6	0	0	---	0.00	29.707 
10:45	79.2	79.2	82.1	75	70.6	0	0	---	0.00	29.702 
10:50	79.6	79.6	82.7	74	70.6	0	0	---	0.00	29.702 
10:55	79.9	79.9	83.3	74	70.8	0	0	---	0.00	29.702 
11:00	80.1	80.1	83.5	73	70.6	0	0	---	0.00	29.700 
11:05	80.1	80.1	83.5	73	70.6	0	0	---	0.00	29.700 
11:10	79.9	79.9	83.1	73	70.4	0	0	---	0.00	29.700 
11:15	79.8	79.8	83.1	74	70.8	0	0	---	0.00	29.699 
11:20	79.6	79.6	82.6	73	70.2	0	0	---	0.00	29.699 
11:25	79.2	79.2	82.1	74	70.2	0	0	---	0.00	29.699 
11:30	78.8	78.8	81.5	75	70.2	0	0	---	0.00	29.697 
11:35	78.6	78.6	81.2	76	70.4	0	0	---	0.00	29.697 
11:40	78.6	78.6	81.2	77	70.8	0	0	---	0.00	29.697 
11:45	78.6	78.6	81.2	77	70.8	1	3	292	0.00	29.698 
11:50	78.5	78.5	81.1	77	70.7	1	3	292	0.00	29.698 
11:55	79.2	79.2	82.3	77	71.3	0	2	292	0.00	29.698 
12:00	79.6	79.6	82.7	74	70.6	1	3	315	0.00	29.692 
12:05	79.0	79.0	81.7	74	70.0	1	5	338	0.00	29.692 
12:10	78.6	78.6	81.2	76	70.4	1	3	315	0.00	29.692 
12:15	78.1	78.1	80.4	77	70.3	1	3	45	0.00	29.698 
12:20	77.7	77.7	79.7	77	69.9	0	2	338	0.00	29.698 
12:25	77.2	77.2	78.9	78	69.8	0	2	338	0.00	29.698 
12:30	76.3	76.3	77.5	79	69.3	1	3	315	0.00	29.702 
12:35	76.1	76.1	77.1	80	69.5	1	5	112	0.00	29.702 
12:40	76.0	76.0	77.0	80	69.4	0	3	112	0.00	29.702 
12:45	76.0	76.0	76.9	81	69.7	0	1	112	0.00	29.698 
12:50	76.1	76.1	77.1	81	69.8	0	3	112	0.00	29.698 
12:55	76.3	76.3	77.5	80	69.7	0	1	112	0.00	29.698 
13:00	76.3	76.3	77.5	80	69.7	1	3	112	0.00	29.696 
13:05	76.3	76.3	77.5	79	69.3	1	3	112	0.00	29.696 
13:10	76.0	76.0	77.0	80	69.4	0	3	112	0.00	29.696 
13:15	75.6	75.6	76.4	80	69.0	0	3	112	0.00	29.694 
13:20	75.4	75.4	76.0	81	69.1	0	3	112	0.00	29.694 
13:25	75.3	75.3	75.9	81	69.1	1	3	112	0.00	29.694 
13:30	75.1	75.1	75.3	83	69.6	2	5	270	0.00	29.693 
13:35	74.7	74.7	74.7	84	69.5	0	1	270	0.10	29.693 
13:40	74.4	74.4	74.4	87	70.3	0	3	270	0.01	29.693 
13:45	74.4	74.4	74.4	89	70.9	0	2	270	0.00	29.681 
13:50	74.4	74.4	74.4	89	70.9	0	4	270	0.00	29.681 
13:55	74.6	74.6	74.6	90	71.5	0	2	90	0.00	29.681 
14:00	74.7	74.7	74.7	91	71.9	1	4	270	0.00	29.676 
14:05	74.9	74.9	74.9	91	72.1	0	2	270	0.00	29.676 
14:10	75.3	75.3	74.5	91	72.5	1	3	270	0.00	29.676 
14:15	75.6	75.6	75.1	91	72.8	0	3	270	0.00	29.664 
14:20	76.3	76.3	76.7	90	73.1	0	3	270	0.00	29.664 
14:25	76.7	76.7	77.5	90	73.5	0	3	270	0.00	29.664 
14:30	77.0	77.0	78.3	87	72.8	1	2	292	0.00	29.660 
14:35	77.4	77.4	79.2	85	72.5	1	3	292	0.00	29.660 
14:40	78.1	78.1	80.6	84	72.9	1	3	292	0.00	29.660 
14:45	78.6	78.6	81.5	81	72.3	1	3	292	0.00	29.644 
14:50	78.8	78.8	81.7	78	71.3	2	4	292	0.00	29.644 
14:55	79.6	79.6	83.1	77	71.7	1	3	315	0.00	29.644 
15:00	80.3	80.3	84.1	75	71.6	2	5	315	0.00	29.636 
15:05	80.9	80.9	85.0	73	71.4	2	6	270	0.00	29.636 
15:10	81.4	81.4	85.5	71	71.1	1	4	270	0.00	29.636 
15:15	82.0	82.0	86.2	69	70.8	1	2	270	0.00	29.626 
15:20	82.6	82.6	86.9	67	70.5	2	5	292	0.00	29.626 
15:25	82.8	82.8	87.5	68	71.1	1	4	292	0.00	29.626 
15:30	83.4	83.4	87.8	65	70.4	1	4	292	0.00	29.610 
15:35	83.2	83.2	87.2	64	69.7	1	4	292	0.00	29.610 
15:40	83.6	83.6	87.6	63	69.6	1	3	292	0.00	29.610 
15:45	83.6	83.6	87.6	63	69.6	1	3	292	0.00	29.602 
15:50	83.0	83.0	86.9	64	69.5	1	4	292	0.00	29.602 
15:55	82.4	82.4	85.6	63	68.5	1	4	292	0.00	29.602 
16:00	81.8	81.8	85.1	65	68.9	1	3	292	0.00	29.599 
16:05	81.2	81.2	84.1	65	68.3	1	3	292	0.00	29.599 
16:10	81.1	81.1	84.0	65	68.2	1	2	292	0.00	29.599 
16:15	80.9	80.9	84.0	67	68.9	0	3	292	0.00	29.581 
16:20	80.7	80.7	83.7	67	68.7	1	4	292	0.00	29.581 
16:25	80.7	80.7	83.7	67	68.7	0	3	292	0.00	29.581 
16:30	80.5	80.5	83.2	66	68.1	0	2	292	0.00	29.591 
16:35	80.1	80.1	82.4	64	66.8	3	12	292	0.00	29.591 
16:40	76.1	76.1	78.1	61	61.7	5	14	292	0.00	29.591 
16:45	71.6	71.6	71.6	71	61.7	4	15	338	0.03	29.601 
16:50	68.1	68.1	68.1	80	61.7	3	7	338	0.02	29.601 
16:55	66.6	66.6	66.6	83	61.3	2	6	315	0.00	29.601 
17:00	66.0	66.0	66.0	85	61.4	1	3	315	0.04	29.641 
17:05	65.6	65.6	65.6	88	61.9	1	5	315	0.02	29.641 
17:10	66.0	66.0	66.0	90	63.0	4	9	270	0.12	29.641 
17:15	66.0	66.0	66.0	91	63.3	1	5	270	0.03	29.630 
17:20	66.0	66.0	66.0	91	63.3	0	2	270	0.01	29.630 
17:25	66.1	66.1	66.1	92	63.7	0	1	270	0.01	29.630 
17:30	66.9	66.9	66.9	93	64.8	1	2	270	0.00	29.645 
17:35	67.3	67.3	67.3	92	64.9	2	4	270	0.00	29.645 
17:40	67.4	67.4	67.4	92	65.0	1	3	270	0.00	29.645 
17:45	67.4	67.4	67.4	92	65.0	1	3	270	0.00	29.639 
17:50	67.6	67.6	67.6	92	65.2	1	2	270	0.00	29.639 
17:55	67.8	67.8	67.8	92	65.4	0	3	270	0.00	29.639 
18:00	68.1	68.1	68.1	92	65.7	0	3	270	0.00	29.649 
18:05	68.4	68.4	68.4	92	66.0	0	3	270	0.00	29.649 
18:10	68.6	68.6	68.6	92	66.2	0	1	270	0.00	29.649 
18:15	69.1	69.1	69.1	92	66.7	0	1	270	0.00	29.641 
18:20	69.3	69.3	69.3	91	66.6	0	1	270	0.00	29.641 
18:25	69.6	69.6	69.6	91	66.8	0	1	270	0.00	29.641 
18:30	69.9	69.9	69.9	90	66.8	1	4	270	0.00	29.639 
18:35	70.3	70.3	70.3	89	66.9	0	2	270	0.00	29.639 
18:40	70.6	70.6	70.6	88	66.9	0	1	270	0.00	29.639 
18:45	70.8	70.8	70.8	88	67.1	0	1	270	0.00	29.643 
18:50	70.9	70.9	70.9	87	66.8	0	1	270	0.00	29.643 
18:55	71.1	71.1	71.1	87	67.0	0	1	270	0.00	29.643 
19:00	71.1	71.1	71.1	86	66.7	0	1	270	0.00	29.645 
19:05	71.1	71.1	71.1	86	66.7	0	1	270	0.00	29.645 
19:10	71.1	71.1	71.1	86	66.7	0	0	---	0.00	29.645 
19:15	71.3	71.3	71.3	86	66.9	0	0	---	0.00	29.642 
19:20	71.3	71.3	71.3	86	66.9	0	1	270	0.00	29.642 
19:25	71.3	71.3	71.3	85	66.5	0	1	270	0.00	29.642 
19:30	71.3	71.3	71.3	85	66.5	0	1	270	0.00	29.641 
19:35	71.1	71.1	71.1	84	66.0	0	1	270	0.00	29.641 
19:40	70.9	70.9	70.9	84	65.8	0	1	270	0.00	29.641 
19:45	71.1	71.1	71.1	84	66.0	0	2	270	0.00	29.643 
19:50	71.5	71.5	71.5	83	66.1	0	1	270	0.00	29.643 
19:55	71.5	71.5	71.5	81	65.4	1	3	270	0.00	29.643 
20:00	71.8	71.8	71.8	80	65.3	1	3	270	0.00	29.652 
20:05	72.1	72.1	72.1	79	65.2	1	4	270	0.00	29.652 
20:10	72.5	72.5	72.5	79	65.6	1	3	270	0.00	29.652 
20:15	72.7	72.7	72.7	77	65.1	2	5	270	0.00	29.662 
20:20	72.8	72.8	72.8	76	64.8	2	6	315	0.00	29.662 
20:25	72.8	72.8	72.8	75	64.4	1	4	315	0.00	29.662 
20:30	72.8	72.8	72.8	75	64.4	1	3	315	0.00	29.667 
20:35	72.8	72.8	72.8	73	63.6	1	4	315	0.00	29.667 
20:40	72.8	72.8	72.8	73	63.6	0	2	270	0.00	29.667 
20:45	72.8	72.8	72.8	72	63.2	0	1	270	0.00	29.682 
20:50	72.7	72.7	72.7	71	62.7	0	3	270	0.00	29.682 
20:55	72.5	72.5	72.5	71	62.5	1	3	270	0.00	29.682 
21:00	72.3	72.3	72.3	69	61.5	2	5	270	0.00	29.690 
21:05	72.3	72.3	72.3	67	60.7	2	7	315	0.00	29.690 
21:10	72.1	72.1	72.1	66	60.1	3	6	315	0.00	29.690 
21:15	72.0	72.0	72.0	65	59.6	2	5	315	0.00	29.697 
21:20	71.8	71.8	71.8	61	57.6	3	7	315	0.00	29.697 
21:25	71.6	71.6	71.6	61	57.4	2	6	315	0.00	29.697 
21:30	71.6	71.6	71.6	60	57.0	3	7	292	0.00	29.702 
21:35	71.3	71.3	71.3	60	56.7	2	7	315	0.00	29.702 
21:40	70.9	70.9	70.9	60	56.3	2	5	315	0.00	29.702 
21:45	70.6	70.6	70.6	61	56.5	1	2	270	0.00	29.711 
21:50	70.3	70.3	70.3	61	56.2	1	4	270	0.00	29.711 
21:55	70.1	70.1	70.1	61	56.0	1	4	270	0.00	29.711 
22:00	69.8	69.8	69.8	61	55.7	1	4	270	0.00	29.717 
22:05	69.6	69.6	69.6	62	56.0	1	4	270	0.00	29.717 
22:10	69.4	69.4	69.4	62	55.8	2	5	292	0.00	29.717 
22:15	69.1	69.1	69.1	63	56.0	1	3	292	0.00	29.722 
22:20	68.9	68.9	68.9	63	55.8	2	4	315	0.00	29.722 
22:25	68.8	68.8	68.8	64	56.1	1	3	292	0.00	29.722 
22:30	68.4	68.4	68.4	64	55.7	2	4	292	0.00	29.726 
22:35	68.3	68.3	68.3	65	56.1	1	2	292	0.00	29.726 
22:40	67.9	67.9	67.9	66	56.1	1	3	292	0.00	29.726 
22:45	67.8	67.8	67.8	67	56.4	1	2	292	0.00	29.726 
22:50	67.4	67.4	67.4	68	56.5	1	2	292	0.00	29.726 
22:55	67.3	67.3	67.3	69	56.8	1	3	292	0.00	29.726 
23:00	67.1	67.1	67.1	69	56.6	0	2	292	0.00	29.722 
23:05	66.9	66.9	66.9	70	56.8	0	2	292	0.00	29.722 
23:10	66.6	66.6	66.6	72	57.3	0	1	292	0.00	29.722 
23:15	66.4	66.4	66.4	73	57.5	0	2	292	0.00	29.719 
23:20	66.4	66.4	66.4	73	57.5	0	3	292	0.00	29.719 
23:25	66.3	66.3	66.3	73	57.4	0	2	292	0.00	29.719 
23:30	66.1	66.1	66.1	74	57.6	0	2	292	0.00	29.721 
23:35	66.0	66.0	66.0	75	57.8	1	4	292	0.00	29.721 
23:40	66.0	66.0	66.0	75	57.8	1	5	315	0.00	29.721 
23:45	65.8	65.8	65.8	76	58.0	1	3	270	0.00	29.726 
23:50	65.6	65.6	65.6	77	58.2	1	3	292	0.00	29.726 
23:55	65.6	65.6	65.6	77	58.2	1	3	292	0.00	29.726 

CoCoRaHS
IN-AL-39
A2 Web Hosting
Creative Commons License
GoDaddy
search engine by freefind advanced

loaded 2018-11-17 14:03:30 • last modified 2010-11-18 10:43:29
Privacy PolicyDisclaimer
• wx.awcolley.com is powered by PmWiki v.2002016 •
• all content (unless otherwise noted) © 2018 A W Colley